createdAt,value
2022-08-17T00:01:26.313Z,94801.19
2022-08-17T00:04:30.591Z,94799.94
2022-08-17T00:07:33.628Z,94801.97
2022-08-17T00:10:37.139Z,94807.22
2022-08-17T00:13:45.630Z,94809.13
2022-08-17T00:16:57.045Z,94807.56
2022-08-17T00:20:01.249Z,94802.63
2022-08-17T00:23:06.988Z,94804.91
2022-08-17T00:26:10.913Z,94808.66
2022-08-17T00:29:20.204Z,94804.75
2022-08-17T00:33:12.019Z,94801.56
2022-08-17T00:35:47.694Z,94798.69
2022-08-17T00:38:50.804Z,94788.53
2022-08-17T00:41:53.876Z,94788.63
2022-08-17T00:44:58.402Z,94790.31
2022-08-17T00:48:01.484Z,94785.50
2022-08-17T00:51:10.425Z,94787.03
2022-08-17T00:54:18.255Z,94791.50
2022-08-17T00:57:25.704Z,94790.13
2022-08-17T01:00:34.691Z,94784.66
2022-08-17T01:03:38.782Z,94789.25
2022-08-17T01:06:43.649Z,94781.69
2022-08-17T01:09:46.816Z,94786.84
2022-08-17T01:12:50.450Z,94789.31
2022-08-17T01:15:59.630Z,94786.28
2022-08-17T01:19:06.429Z,94784.44
2022-08-17T01:22:18.870Z,94783.47
2022-08-17T01:25:23.462Z,94786.06
2022-08-17T01:28:52.647Z,94786.28
2022-08-17T01:31:57.834Z,94782.47
2022-08-17T01:35:01.831Z,94787.50
2022-08-17T01:38:06.744Z,94785.16
2022-08-17T01:41:13.012Z,94769.50
2022-08-17T01:44:17.804Z,94776.44
2022-08-17T01:47:20.879Z,94773.41
2022-08-17T01:50:27.788Z,94775.50
2022-08-17T01:53:37.886Z,94776.47
2022-08-17T01:56:44.297Z,94779.69
2022-08-17T01:59:50.587Z,94782.38
2022-08-17T02:02:53.643Z,94781.28
2022-08-17T02:05:56.833Z,94784.16
2022-08-17T02:09:03.876Z,94783.38
2022-08-17T02:12:37.862Z,94791.09
2022-08-17T02:15:32.124Z,94786.84
2022-08-17T02:18:35.229Z,94790.97
2022-08-17T02:21:40.060Z,94789.88
2022-08-17T02:24:58.933Z,94801.03
2022-08-17T02:28:04.971Z,94797.22
2022-08-17T02:31:10.556Z,94793.66
2022-08-17T02:34:14.108Z,94789.97
2022-08-17T02:37:18.319Z,94789.38
2022-08-17T02:40:36.158Z,94790.53
2022-08-17T02:43:39.790Z,94789.09
2022-08-17T02:46:42.829Z,94792.56
2022-08-17T02:49:55.891Z,94795.53
2022-08-17T02:53:02.332Z,94789.44
2022-08-17T02:56:07.835Z,94799.91
2022-08-17T02:59:10.907Z,94799.69
2022-08-17T03:02:13.996Z,94794.31
2022-08-17T03:05:21.622Z,94792.53
2022-08-17T03:08:25.666Z,94794.97
2022-08-17T03:11:30.171Z,94801.59
2022-08-17T03:14:35.196Z,94796.34
2022-08-17T03:17:41.450Z,94800.56
2022-08-17T03:20:45.175Z,94806.59
2022-08-17T03:23:48.287Z,94813.53
2022-08-17T03:26:59.077Z,94809.06
2022-08-17T03:30:03.378Z,94814.66
2022-08-17T03:33:10.034Z,94813.56
2022-08-17T03:36:13.276Z,94812.88
2022-08-17T03:39:16.307Z,94812.19
2022-08-17T03:42:32.527Z,94819.44
2022-08-17T03:45:54.225Z,94819.41
2022-08-17T03:49:14.826Z,94830.25
2022-08-17T03:52:35.384Z,94830.00
2022-08-17T03:55:56.943Z,94834.50
2022-08-17T03:59:01.422Z,94835.75
2022-08-17T04:02:09.190Z,94826.50
2022-08-17T04:05:12.288Z,94834.75
2022-08-17T04:08:15.540Z,94832.50
2022-08-17T04:11:18.601Z,94836.78
2022-08-17T04:14:23.040Z,94832.88
2022-08-17T04:17:28.884Z,94830.81
2022-08-17T04:20:31.989Z,94840.69
2022-08-17T04:23:36.677Z,94843.03
2022-08-17T04:26:53.402Z,94840.75
2022-08-17T04:29:59.103Z,94849.94
2022-08-17T04:33:07.314Z,94851.56
2022-08-17T04:36:11.219Z,94848.19
2022-08-17T04:39:14.288Z,94850.41
2022-08-17T04:42:17.349Z,94858.69
2022-08-17T04:45:21.958Z,94856.53
2022-08-17T04:48:27.853Z,94850.94
2022-08-17T04:51:46.694Z,94861.22
2022-08-17T04:54:59.343Z,94870.06
2022-08-17T04:58:02.402Z,94876.69
2022-08-17T05:01:08.091Z,94879.25
2022-08-17T05:04:32.815Z,94869.53
2022-08-17T05:07:36.756Z,94878.44
2022-08-17T05:10:45.585Z,94872.97
2022-08-17T05:13:50.387Z,94871.59
2022-08-17T05:16:54.974Z,94868.28
2022-08-17T05:19:58.067Z,94878.78
2022-08-17T05:23:04.657Z,94879.56
2022-08-17T05:26:08.066Z,94885.03
2022-08-17T05:29:14.689Z,94885.81
2022-08-17T05:32:37.773Z,94891.53
2022-08-17T05:35:47.064Z,94885.28
2022-08-17T05:38:50.668Z,94885.66
2022-08-17T05:41:53.969Z,94885.84
2022-08-17T05:44:59.090Z,94886.97
2022-08-17T05:48:03.937Z,94892.69
2022-08-17T05:51:17.102Z,94882.16
2022-08-17T05:54:33.549Z,94880.81
2022-08-17T05:57:53.002Z,94879.72
2022-08-17T06:01:04.269Z,94885.31
2022-08-17T06:04:20.200Z,94885.97
2022-08-17T06:07:33.436Z,94885.72
2022-08-17T06:10:46.575Z,94881.25
2022-08-17T06:14:05.026Z,94879.69
2022-08-17T06:17:14.130Z,94883.53
2022-08-17T06:20:18.806Z,94880.81
2022-08-17T06:23:27.857Z,94880.78
2022-08-17T06:26:38.578Z,94877.78
2022-08-17T06:29:54.694Z,94884.00
2022-08-17T06:33:00.318Z,94883.53
2022-08-17T06:36:32.290Z,94887.53
2022-08-17T06:39:47.618Z,94883.81
2022-08-17T06:43:06.181Z,94884.38
2022-08-17T06:46:14.696Z,94879.56
2022-08-17T06:49:25.955Z,94877.38
2022-08-17T06:52:45.520Z,94877.50
2022-08-17T06:56:06.134Z,94872.63
2022-08-17T06:59:14.957Z,94879.78
2022-08-17T07:02:29.155Z,94876.13
2022-08-17T07:05:52.607Z,94881.56
2022-08-17T07:09:02.261Z,94883.50
2022-08-17T07:12:15.108Z,94873.94
2022-08-17T07:15:23.919Z,94876.00
2022-08-17T07:18:33.153Z,94873.28
2022-08-17T07:21:46.065Z,94875.72
2022-08-17T07:24:54.823Z,94876.59
2022-08-17T07:28:01.122Z,94875.38
2022-08-17T07:31:06.194Z,94868.00
2022-08-17T07:34:14.637Z,94872.59
2022-08-17T07:37:20.632Z,94868.34
2022-08-17T07:40:31.480Z,94871.81
2022-08-17T07:43:38.057Z,94869.31
2022-08-17T07:47:08.053Z,94859.31
2022-08-17T07:50:27.842Z,94864.34
2022-08-17T07:53:32.151Z,94864.00
2022-08-17T07:56:44.266Z,94862.22
2022-08-17T08:00:16.552Z,94856.63
2022-08-17T08:03:27.310Z,94852.72
2022-08-17T08:06:32.375Z,94854.09
2022-08-17T08:09:42.390Z,94851.72
2022-08-17T08:12:49.000Z,94848.56
2022-08-17T08:16:13.366Z,94854.34
2022-08-17T08:19:20.924Z,94849.03
2022-08-17T08:22:31.423Z,94849.19
2022-08-17T08:25:53.377Z,94851.94
2022-08-17T08:29:09.538Z,94854.72
2022-08-17T08:32:20.699Z,94841.84
2022-08-17T08:35:31.007Z,94840.38
2022-08-17T08:38:45.559Z,94839.50
2022-08-17T08:41:58.962Z,94834.91
2022-08-17T08:45:13.753Z,94831.69
2022-08-17T08:48:53.855Z,94838.41
2022-08-17T08:52:02.976Z,94832.03
2022-08-17T08:55:12.960Z,94825.78
2022-08-17T08:58:31.943Z,94833.69
2022-08-17T09:01:53.884Z,94830.06
2022-08-17T09:05:15.066Z,94833.06
2022-08-17T09:08:25.067Z,94817.25
2022-08-17T09:11:35.683Z,94817.66
2022-08-17T09:15:07.152Z,94823.63
2022-08-17T09:18:59.178Z,94822.50
2022-08-17T09:21:53.624Z,94819.91
2022-08-17T09:25:04.469Z,94827.06
2022-08-17T09:28:13.414Z,94821.97
2022-08-17T09:31:21.515Z,94822.69
2022-08-17T09:34:34.725Z,94821.38
2022-08-17T09:37:49.088Z,94819.28
2022-08-17T09:40:58.079Z,94824.66
2022-08-17T09:44:22.750Z,94819.13
2022-08-17T09:47:31.749Z,94822.44
2022-08-17T09:51:05.453Z,94822.25
2022-08-17T09:54:37.608Z,94816.63
2022-08-17T09:57:50.460Z,94811.31
2022-08-17T10:01:01.629Z,94809.75
2022-08-17T10:04:29.323Z,94808.28
2022-08-17T10:07:38.331Z,94808.63
2022-08-17T10:11:00.193Z,94805.59
2022-08-17T10:14:36.596Z,94797.19
2022-08-17T10:17:43.477Z,94794.13
2022-08-17T10:21:16.990Z,94796.31
2022-08-17T10:25:21.359Z,94791.84
2022-08-17T10:28:19.781Z,94791.66
2022-08-17T10:31:36.268Z,94791.31
2022-08-17T10:35:11.730Z,94785.56
2022-08-17T10:38:34.770Z,94780.47
2022-08-17T10:41:44.243Z,94779.25
2022-08-17T10:44:56.326Z,94783.72
2022-08-17T10:48:06.060Z,94784.28
2022-08-17T10:51:12.760Z,94777.75
2022-08-17T10:54:49.972Z,94774.44
2022-08-17T10:58:21.127Z,94773.31
2022-08-17T11:01:58.375Z,94774.38
2022-08-17T11:05:33.940Z,94766.25
2022-08-17T11:09:18.629Z,94765.47
2022-08-17T11:12:37.659Z,94759.38
2022-08-17T11:15:58.866Z,94762.06
2022-08-17T11:19:32.243Z,94757.41
2022-08-17T11:23:13.384Z,94746.53
2022-08-17T11:26:26.214Z,94758.75
2022-08-17T11:29:36.535Z,94746.03
2022-08-17T11:32:48.657Z,94751.81
2022-08-17T11:36:06.471Z,94755.47
2022-08-17T11:39:28.694Z,94760.66
2022-08-17T11:42:52.457Z,94768.94
2022-08-17T11:46:18.170Z,94769.34
2022-08-17T11:50:04.503Z,94775.66
2022-08-17T11:53:08.995Z,94781.28
2022-08-17T11:56:30.349Z,94785.78
2022-08-17T11:59:59.775Z,94790.00
2022-08-17T12:03:24.980Z,94783.50
2022-08-17T12:06:57.001Z,94790.88
2022-08-17T12:10:01.783Z,94795.28
2022-08-17T12:13:11.436Z,94803.44
2022-08-17T12:16:16.613Z,94799.78
2022-08-17T12:19:22.610Z,94796.16
2022-08-17T12:22:33.021Z,94795.28
2022-08-17T12:25:41.022Z,94794.84
2022-08-17T12:28:47.923Z,94797.00
2022-08-17T12:31:52.985Z,94792.69
2022-08-17T12:34:56.174Z,94794.41
2022-08-17T12:38:01.685Z,94785.72
2022-08-17T12:41:21.112Z,94781.13
2022-08-17T12:44:26.455Z,94777.28
2022-08-17T12:47:31.932Z,94775.84
2022-08-17T12:50:37.209Z,94772.03
2022-08-17T12:53:42.585Z,94777.22
2022-08-17T12:56:47.674Z,94770.03
2022-08-17T12:59:59.619Z,94762.22
2022-08-17T13:03:06.100Z,94763.97
2022-08-17T13:06:12.198Z,94761.97
2022-08-17T13:09:21.273Z,94756.94
2022-08-17T13:12:29.321Z,94751.91
2022-08-17T13:15:38.267Z,94758.06
2022-08-17T13:18:50.255Z,94756.25
2022-08-17T13:21:57.202Z,94756.13
2022-08-17T13:25:05.565Z,94761.03
2022-08-17T13:28:30.618Z,94763.44
2022-08-17T13:31:52.643Z,94757.09
2022-08-17T13:35:15.429Z,94762.56
2022-08-17T13:38:41.187Z,94763.41
2022-08-17T13:41:46.726Z,94758.63
2022-08-17T13:44:50.071Z,94757.63
2022-08-17T13:48:06.435Z,94755.13
2022-08-17T13:51:26.646Z,94754.84
2022-08-17T13:54:32.593Z,94759.38
2022-08-17T13:57:37.761Z,94755.72
2022-08-17T14:00:40.861Z,94748.59
2022-08-17T14:03:44.408Z,94743.03
2022-08-17T14:06:54.172Z,94748.19
2022-08-17T14:10:01.697Z,94746.00
2022-08-17T14:13:06.687Z,94743.69
2022-08-17T14:16:09.810Z,94736.72
2022-08-17T14:19:14.175Z,94735.72
2022-08-17T14:22:22.770Z,94731.34
2022-08-17T14:25:28.417Z,94736.19
2022-08-17T14:28:32.967Z,94737.81
2022-08-17T14:31:40.116Z,94744.88
2022-08-17T14:34:45.331Z,94733.75
2022-08-17T14:37:48.419Z,94723.69
2022-08-17T14:40:51.659Z,94732.13
2022-08-17T14:43:56.278Z,94739.31
2022-08-17T14:47:00.764Z,94730.59
2022-08-17T14:50:04.872Z,94734.22
2022-08-17T14:53:14.764Z,94734.09
2022-08-17T14:56:18.195Z,94730.91
2022-08-17T14:59:22.778Z,94727.56
2022-08-17T15:02:29.891Z,94732.78
2022-08-17T15:05:36.765Z,94726.78
2022-08-17T15:08:39.903Z,94733.84
2022-08-17T15:11:43.063Z,94745.91
2022-08-17T15:14:47.581Z,94734.94
2022-08-17T15:17:51.261Z,94739.69
2022-08-17T15:20:54.927Z,94737.59
2022-08-17T15:23:58.053Z,94734.63
2022-08-17T15:27:01.129Z,94743.91
2022-08-17T15:30:07.717Z,94738.53
2022-08-17T15:33:16.260Z,94732.25
2022-08-17T15:36:20.255Z,94739.28
2022-08-17T15:39:23.431Z,94735.22
2022-08-17T15:42:26.824Z,94745.50
2022-08-17T15:45:33.587Z,94740.00
2022-08-17T15:48:42.697Z,94737.25
2022-08-17T15:51:45.840Z,94737.97
2022-08-17T15:54:53.511Z,94728.34
2022-08-17T15:57:56.674Z,94731.50
2022-08-17T16:01:16.707Z,94733.31
2022-08-17T16:04:30.029Z,94743.06
2022-08-17T16:07:34.277Z,94739.44
2022-08-17T16:10:37.675Z,94737.66
2022-08-17T16:13:41.656Z,94741.91
2022-08-17T16:16:51.730Z,94750.34
2022-08-17T16:19:54.874Z,94743.91
2022-08-17T16:22:58.435Z,94743.31
2022-08-17T16:26:01.436Z,94740.34
2022-08-17T16:29:07.734Z,94736.31
2022-08-17T16:32:15.173Z,94736.78
2022-08-17T16:35:21.337Z,94743.06
2022-08-17T16:38:24.421Z,94741.81
2022-08-17T16:41:45.623Z,94746.78
2022-08-17T16:44:49.352Z,94752.34
2022-08-17T16:47:54.539Z,94753.69
2022-08-17T16:51:04.517Z,94752.63
2022-08-17T16:54:08.679Z,94753.41
2022-08-17T16:57:11.859Z,94757.19
2022-08-17T17:00:16.963Z,94761.63
2022-08-17T17:03:25.914Z,94766.16
2022-08-17T17:06:39.175Z,94764.88
2022-08-17T17:09:43.896Z,94761.03
2022-08-17T17:13:01.212Z,94761.53
2022-08-17T17:16:20.833Z,94772.91
2022-08-17T17:19:34.994Z,94783.53
2022-08-17T17:22:48.308Z,94782.16
2022-08-17T17:25:59.623Z,94774.06
2022-08-17T17:29:19.534Z,94783.78
2022-08-17T17:32:32.240Z,94788.19
2022-08-17T17:35:44.861Z,94788.91
2022-08-17T17:38:50.990Z,94793.94
2022-08-17T17:41:57.357Z,94801.34
2022-08-17T17:45:07.848Z,94810.66
2022-08-17T17:48:11.861Z,94815.34
2022-08-17T17:52:05.222Z,94810.59
2022-08-17T17:54:58.480Z,94815.06
2022-08-17T17:58:28.665Z,94819.66
2022-08-17T18:01:46.122Z,94825.81
2022-08-17T18:05:00.351Z,94824.69
2022-08-17T18:08:16.480Z,94833.19
2022-08-17T18:11:37.113Z,94840.72
2022-08-17T18:15:02.255Z,94848.97
2022-08-17T18:18:37.653Z,94847.97
2022-08-17T18:21:44.696Z,94851.88
2022-08-17T18:24:56.004Z,94851.19
2022-08-17T18:27:59.243Z,94852.75
2022-08-17T18:31:16.978Z,94848.94
2022-08-17T18:34:45.853Z,94859.63
2022-08-17T18:37:50.566Z,94866.16
2022-08-17T18:41:08.287Z,94860.44
2022-08-17T18:44:25.160Z,94871.03
2022-08-17T18:47:29.612Z,94873.56
2022-08-17T18:50:39.592Z,94879.53
2022-08-17T18:53:42.880Z,94882.03
2022-08-17T18:56:52.519Z,94883.06
2022-08-17T18:59:56.017Z,94885.69
2022-08-17T19:03:02.993Z,94887.31
2022-08-17T19:06:19.181Z,94876.28
2022-08-17T19:09:33.826Z,94895.53
2022-08-17T19:12:43.235Z,94896.13
2022-08-17T19:16:11.727Z,94894.88
2022-08-17T19:19:20.013Z,94898.72
2022-08-17T19:22:28.672Z,94893.59
2022-08-17T19:25:35.591Z,94886.44
2022-08-17T19:28:48.458Z,94898.09
2022-08-17T19:31:55.271Z,94898.53
2022-08-17T19:35:00.652Z,94900.63
2022-08-17T19:38:13.266Z,94894.88
2022-08-17T19:41:23.735Z,94900.75
2022-08-17T19:44:47.193Z,94897.75
2022-08-17T19:48:03.152Z,94896.19
2022-08-17T19:51:12.556Z,94894.59
2022-08-17T19:54:24.840Z,94906.97
2022-08-17T19:57:38.237Z,94900.75
2022-08-17T20:00:50.378Z,94899.56
2022-08-17T20:03:59.204Z,94908.59
2022-08-17T20:07:05.722Z,94910.25
2022-08-17T20:10:14.556Z,94912.25
2022-08-17T20:13:33.179Z,94908.88
2022-08-17T20:16:38.183Z,94911.72
2022-08-17T20:19:52.152Z,94908.44
2022-08-17T20:23:02.508Z,94910.13
2022-08-17T20:26:18.511Z,94914.22
2022-08-17T20:29:37.655Z,94913.56
2022-08-17T20:32:55.428Z,94911.47
2022-08-17T20:36:06.418Z,94912.94
2022-08-17T20:39:32.081Z,94904.63
2022-08-17T20:42:38.109Z,94919.44
2022-08-17T20:45:58.233Z,94921.00
2022-08-17T20:49:27.124Z,94924.56
2022-08-17T20:52:47.569Z,94919.53
2022-08-17T20:55:54.816Z,94913.22
2022-08-17T20:59:00.737Z,94919.44
2022-08-17T21:02:18.399Z,94921.00
2022-08-17T21:05:34.517Z,94915.28
2022-08-17T21:08:45.688Z,94918.13
2022-08-17T21:12:04.100Z,94916.47
2022-08-17T21:15:13.476Z,94917.47
2022-08-17T21:18:26.014Z,94918.97
2022-08-17T21:21:39.512Z,94915.50
2022-08-17T21:24:54.829Z,94921.19
2022-08-17T21:28:10.661Z,94916.59
2022-08-17T21:31:34.206Z,94924.75
2022-08-17T21:34:39.029Z,94932.31
2022-08-17T21:37:45.530Z,94925.03
2022-08-17T21:40:51.388Z,94936.47
2022-08-17T21:44:02.912Z,94933.00
2022-08-17T21:47:20.938Z,94943.22
2022-08-17T21:50:26.187Z,94941.19
2022-08-17T21:53:40.574Z,94948.47
2022-08-17T21:56:48.190Z,94944.53
2022-08-17T21:59:57.334Z,94944.59
2022-08-17T22:03:03.140Z,94946.19
2022-08-17T22:06:21.604Z,94945.22
2022-08-17T22:09:28.634Z,94943.09
2022-08-17T22:12:31.834Z,94941.31
2022-08-17T22:15:39.960Z,94940.16
2022-08-17T22:18:44.762Z,94941.34
2022-08-17T22:21:47.836Z,94932.00
2022-08-17T22:24:57.421Z,94941.38
2022-08-17T22:28:02.843Z,94941.06
2022-08-17T22:31:08.351Z,94935.94
2022-08-17T22:34:15.862Z,94940.28
2022-08-17T22:37:27.499Z,94933.88
2022-08-17T22:40:34.890Z,94943.59
2022-08-17T22:43:43.151Z,94933.78
2022-08-17T22:46:56.570Z,94932.19
2022-08-17T22:50:02.774Z,94932.53
2022-08-17T22:53:33.303Z,94925.97
2022-08-17T22:56:55.952Z,94928.75
2022-08-17T22:59:59.043Z,94926.53
2022-08-17T23:03:12.012Z,94934.09
2022-08-17T23:06:15.064Z,94928.84
2022-08-17T23:09:18.121Z,94926.84
2022-08-17T23:12:27.462Z,94928.44
2022-08-17T23:15:32.929Z,94926.78
2022-08-17T23:18:37.456Z,94934.56
2022-08-17T23:21:41.011Z,94928.59
2022-08-17T23:24:49.080Z,94921.19
2022-08-17T23:27:53.864Z,94921.50
2022-08-17T23:30:57.003Z,94920.41
2022-08-17T23:34:00.344Z,94922.47
2022-08-17T23:37:04.515Z,94918.03
2022-08-17T23:40:08.603Z,94926.53
2022-08-17T23:43:23.512Z,94922.25
2022-08-17T23:46:27.978Z,94933.28
2022-08-17T23:49:31.338Z,94933.63
2022-08-17T23:52:36.905Z,94921.19
2022-08-17T23:55:39.992Z,94925.19
2022-08-17T23:58:45.385Z,94922.31
